Hugo, OK (74743)

11:11 AM CDT on September 21, 2014 (GMT -0500)
Stamper Municipal | Change Station
CLOSE
Current Station
Airport
Location: Hugo,
Elevation: 571 ft
Nearby Weather Stations

Elev 571 ft 34.03 °N, 95.54 °W | Updated 16 minutes ago

Clear
Clear
85 °F
Feels Like 88 °F
N
5
Wind Variable Wind from NW

Today
High -- | Low -- °F
--% Chance of Precip.
Yesterday
High -- | Low -- °F
Precip. -- in
7:09 AM 7:20 PM
Waning Crescent, 6% visible
Pressure 30.11 in
Visibility 10.0 miles
Clouds Clear
Heat Index 88 °F
Dew Point 69 °F
Humidity 58%
Rainfall 0.00 in
Snow Depth Not available.
UV 6 out of 12
Pollen 10.70 out of 12
Air Quality Not available.
Flu Activity Not available.
METAR KHHW 211555Z AUTO 31004KT 10SM CLR 29/20 A3011 RMK AO2 T02930204

More Conditions Fewer Conditions

Pressure 30.11 in
Visibility 10.0 miles
Clouds Clear
Heat Index 88 °F
Dew Point 69 °F
Humidity 58%
Rainfall 0.00 in
Snow Depth Not available.
UV 6 out of 12
Pollen 10.70 out of 12
Air Quality Not available.
Flu Activity Not available.
METAR KHHW 211555Z AUTO 31004KT 10SM CLR 29/20 A3011 RMK AO2 T02930204

More Conditions Fewer Conditions

Nowcast | as of 10:55 am CDT on September 21, 2014

At 10:55 am...National Weather Service Doppler radars continued to detect widely scattered rain showers and isolated thunderstorms effecting portions of eastern Oklahoma and western Arkansas. These showers and storms were developing along and behind a cold front that was pushing through the area. All this activity was moving toward the southeast...around 30 miles per hour. Through 1:00 PM...widely scattered showers with a few embedded thunderstorms will continue to move to the south across eastern Oklahoma and western Arkansas. Precipitation will be light...with less than a tenth of an inch per hour expected. Any embedded thunderstorms could produce brief moderate rainfall...along with lightning and a few rumbles of thunder.

×

10-Day Weather Forecast

Almanac

Astronomy

Sep. 21, 2014 Rise Set
Actual Time 7:09 AM CDT 7:20 PM CDT
Civil Twilight 6:44 AM CDT 7:45 PM CDT
Nautical Twilight 6:15 AM CDT 8:14 PM CDT
Astronomical Twilight 5:45 AM CDT 8:43 PM CDT
Moon 4:49 AM CDT 5:52 PM CDT
Length of Visible Light 13h 00m
Length of Day
12h 10m
Tomorrow will be 2m 6s shorter.
Waning Crescent, 6% of the Moon is Illuminated
Today
Waning Crescent
Sep 24
New
Oct 1
First Quarter
Oct 8
Full
Oct 15
Last Quarter

Today's Extremes

State Highs State Lows

Community

WunderPhotos

Upload Photos

1,755,181 photos uploaded!

Nearby

Snow Depth

Station Depth Elevation
No new snow has been reported.

Earthquake Activity

City Distance Mag. Time & Date
Luther, Oklahoma 145 miles 2.7 4:47 PM CDT
2014-09-19
Guthrie, Oklahoma 165 miles 3.6 12:23 PM CDT
2014-09-19
Jones, Oklahoma 147 miles 2.8 1:13 AM CDT
2014-09-19
Guthrie, Oklahoma 165 miles 3.0 7:08 PM CDT
2014-09-18
Minimum magnitude displayed is 2.5.

Coastal Water Temperatures

Place Temperature
No Stations Reporting

Nearby Weather Stations